Time;durP1;ratioP1;P1;durP2;ratioP2;P2;SDS_P1;SDS_P2;PMS_P1;PMS_P2;Temp;Humidity;BMP_temperature;BMP_pressure;BME280_temperature;BME280_humidity;BME280_pressure;Samples;Min_cycle;Max_cycle;Signal;HPM_P1;HPM_P2
2021/06/14 00:00:25;;;;;;;;;;;21.80;41.10;;;;;;1481201;40;19956;-65
2021/06/14 00:01:46;;;;;;;;;;;21.80;40.70;;;;;;1482076;40;20778;-65
2021/06/14 00:03:07;;;;;;;;;;;21.80;40.80;;;;;;1481310;40;19976;-65
2021/06/14 00:04:28;;;;;;;;;;;21.80;40.60;;;;;;1482262;40;20075;-65
2021/06/14 00:05:49;;;;;;;;;;;21.80;40.40;;;;;;1481762;40;19944;-65
2021/06/14 00:07:09;;;;;;;;;;;21.80;40.30;;;;;;1481300;40;19955;-65
2021/06/14 00:08:30;;;;;;;;;;;21.70;40.20;;;;;;1482134;40;19938;-65
2021/06/14 00:09:51;;;;;;;;;;;21.70;40.30;;;;;;1481577;40;19945;-65
2021/06/14 00:11:12;;;;;;;;;;;21.70;40.50;;;;;;1480884;40;19947;-66
2021/06/14 00:12:33;;;;;;;;;;;21.70;40.50;;;;;;1484035;40;19955;-65
2021/06/14 00:13:53;;;;;;;;;;;21.60;40.30;;;;;;1482336;40;19948;-65
2021/06/14 00:15:14;;;;;;;;;;;21.60;40.30;;;;;;1482028;40;19936;-65
2021/06/14 00:16:35;;;;;;;;;;;21.60;40.40;;;;;;1482588;40;19940;-65
2021/06/14 00:17:56;;;;;;;;;;;21.60;40.30;;;;;;1480817;40;19943;-65
2021/06/14 00:19:17;;;;;;;;;;;21.50;40.20;;;;;;1482587;40;20010;-66
2021/06/14 00:20:39;;;;;;;;;;;21.50;40.10;;;;;;1481289;40;20622;-65
2021/06/14 00:22:00;;;;;;;;;;;21.50;40.20;;;;;;1483688;40;19976;-66
2021/06/14 00:23:22;;;;;;;;;;;21.50;40.20;;;;;;1483198;40;20058;-65
2021/06/14 00:24:43;;;;;;;;;;;21.50;40.20;;;;;;1481747;40;19968;-65
2021/06/14 00:26:09;;;;;;;;;;;21.50;40.20;;;;;;1480608;40;20253;-65
2021/06/14 00:27:30;;;;;;;;;;;21.40;40.20;;;;;;1481057;40;19947;-66
2021/06/14 00:28:51;;;;;;;;;;;21.40;40.20;;;;;;1482000;40;19940;-66
2021/06/14 00:30:12;;;;;;;;;;;21.40;40.20;;;;;;1481204;40;19944;-66
2021/06/14 00:31:33;;;;;;;;;;;21.40;40.20;;;;;;1481447;40;20209;-66
2021/06/14 00:32:54;;;;;;;;;;;21.30;40.10;;;;;;1481443;40;20342;-66
2021/06/14 00:34:14;;;;;;;;;;;21.30;40.10;;;;;;1480474;40;19944;-65
2021/06/14 00:35:36;;;;;;;;;;;21.30;40.10;;;;;;1481642;40;19946;-68
2021/06/14 00:36:57;;;;;;;;;;;21.30;40.20;;;;;;1481026;40;20401;-66
2021/06/14 00:38:18;;;;;;;;;;;21.20;40.40;;;;;;1480805;40;20006;-66
2021/06/14 00:39:38;;;;;;;;;;;21.30;40.60;;;;;;1481626;40;19940;-65
2021/06/14 00:40:59;;;;;;;;;;;21.20;40.90;;;;;;1481740;40;20042;-66
2021/06/14 00:42:20;;;;;;;;;;;21.20;40.90;;;;;;1482327;40;19936;-65
2021/06/14 00:43:41;;;;;;;;;;;21.20;41.00;;;;;;1481356;40;20216;-65
2021/06/14 00:45:05;;;;;;;;;;;21.20;41.10;;;;;;1482088;40;19944;-65
2021/06/14 00:46:26;;;;;;;;;;;21.20;41.10;;;;;;1481295;40;19948;-65
2021/06/14 00:47:47;;;;;;;;;;;21.20;41.20;;;;;;1481007;40;19940;-65
2021/06/14 00:49:08;;;;;;;;;;;21.10;41.30;;;;;;1481030;40;19943;-65
2021/06/14 00:50:41;;;;;;;;;;;21.10;41.30;;;;;;1481372;40;20420;-65
2021/06/14 00:52:03;;;;;;;;;;;21.10;41.30;;;;;;1481699;40;20042;-65
2021/06/14 00:53:24;;;;;;;;;;;21.10;41.20;;;;;;1481520;40;19952;-65
2021/06/14 00:54:45;;;;;;;;;;;21.10;41.30;;;;;;1480668;40;19973;-65
2021/06/14 00:56:07;;;;;;;;;;;21.10;41.30;;;;;;1479936;40;19941;-65
2021/06/14 00:57:28;;;;;;;;;;;21.10;41.30;;;;;;1481311;40;19936;-65
2021/06/14 00:58:49;;;;;;;;;;;21.10;41.40;;;;;;1481069;40;19962;-65
2021/06/14 01:00:10;;;;;;;;;;;21.10;41.40;;;;;;1480919;40;19940;-66
2021/06/14 01:01:30;;;;;;;;;;;21.10;41.30;;;;;;1481753;40;19940;-65
2021/06/14 01:02:51;;;;;;;;;;;21.10;41.20;;;;;;1481464;40;20443;-65
2021/06/14 01:04:12;;;;;;;;;;;21.00;41.30;;;;;;1481548;40;20176;-65
2021/06/14 01:05:35;;;;;;;;;;;21.10;41.30;;;;;;1480667;40;19975;-65
2021/06/14 01:06:56;;;;;;;;;;;21.00;42.20;;;;;;1480602;40;20045;-65
2021/06/14 01:08:17;;;;;;;;;;;21.00;41.70;;;;;;1480910;40;19944;-65
2021/06/14 01:09:38;;;;;;;;;;;21.00;41.40;;;;;;1481497;40;20015;-64
2021/06/14 01:11:04;;;;;;;;;;;21.00;41.30;;;;;;1480820;40;20254;-65
2021/06/14 01:12:28;;;;;;;;;;;21.00;41.30;;;;;;1480510;40;19940;-65
2021/06/14 01:13:55;;;;;;;;;;;21.00;41.40;;;;;;1481524;40;19940;-65
2021/06/14 01:15:17;;;;;;;;;;;21.00;41.60;;;;;;1475932;40;19952;-66
2021/06/14 01:16:52;;;;;;;;;;;21.00;41.80;;;;;;1480063;40;19944;-65
2021/06/14 01:18:15;;;;;;;;;;;21.00;41.80;;;;;;1482022;40;19944;-66
2021/06/14 01:19:36;;;;;;;;;;;21.00;41.80;;;;;;1480853;40;20162;-65
2021/06/14 01:21:06;;;;;;;;;;;21.00;41.90;;;;;;1480777;40;19952;-65
2021/06/14 01:22:45;;;;;;;;;;;20.90;41.90;;;;;;1481093;40;19947;-66
2021/06/14 01:24:12;;;;;;;;;;;20.90;42.00;;;;;;1482213;39;20218;-65
2021/06/14 01:25:33;;;;;;;;;;;20.90;42.00;;;;;;1480747;40;19955;-65
2021/06/14 01:26:59;;;;;;;;;;;20.90;42.10;;;;;;1482419;40;20248;-66
2021/06/14 01:28:20;;;;;;;;;;;20.90;42.00;;;;;;1482007;40;19932;-66
2021/06/14 01:29:41;;;;;;;;;;;20.90;42.00;;;;;;1482003;40;19943;-66
2021/06/14 01:31:03;;;;;;;;;;;20.90;42.00;;;;;;1481202;40;20459;-65
2021/06/14 01:32:25;;;;;;;;;;;20.90;42.00;;;;;;1483797;40;19955;-65
2021/06/14 01:33:46;;;;;;;;;;;20.90;42.00;;;;;;1483091;40;19932;-65
2021/06/14 01:35:08;;;;;;;;;;;20.90;42.10;;;;;;1481787;40;19937;-66
2021/06/14 01:36:31;;;;;;;;;;;20.90;42.00;;;;;;1482177;40;19932;-65
2021/06/14 01:37:54;;;;;;;;;;;20.90;42.00;;;;;;1482805;40;19937;-65
2021/06/14 01:39:14;;;;;;;;;;;20.90;42.00;;;;;;1481813;40;19943;-66
2021/06/14 01:40:36;;;;;;;;;;;20.90;42.00;;;;;;1480964;40;19943;-65
2021/06/14 01:41:58;;;;;;;;;;;20.90;42.00;;;;;;1481766;40;19940;-65
2021/06/14 01:43:21;;;;;;;;;;;20.90;42.00;;;;;;1481622;40;20193;-65
2021/06/14 01:44:43;;;;;;;;;;;20.90;41.90;;;;;;1483028;40;19944;-65
2021/06/14 01:46:16;;;;;;;;;;;20.90;41.90;;;;;;1483271;40;20227;-65
2021/06/14 01:47:36;;;;;;;;;;;20.90;41.90;;;;;;1484030;40;19980;-66
2021/06/14 01:48:58;;;;;;;;;;;20.90;41.90;;;;;;1480024;40;19969;-65
2021/06/14 01:50:19;;;;;;;;;;;20.90;41.90;;;;;;1480846;40;19932;-65
2021/06/14 01:51:40;;;;;;;;;;;20.90;41.90;;;;;;1478214;40;19941;-65
2021/06/14 01:53:01;;;;;;;;;;;20.80;41.90;;;;;;1482703;40;20247;-65
2021/06/14 01:54:23;;;;;;;;;;;20.80;41.80;;;;;;1482272;40;19947;-65
2021/06/14 01:55:44;;;;;;;;;;;20.80;42.40;;;;;;1482552;40;20037;-65
2021/06/14 01:57:05;;;;;;;;;;;20.80;41.70;;;;;;1481831;40;19990;-65
2021/06/14 01:58:26;;;;;;;;;;;20.80;41.80;;;;;;1483154;40;20310;-65
2021/06/14 01:59:48;;;;;;;;;;;20.80;41.90;;;;;;1476788;40;19936;-65
2021/06/14 02:01:10;;;;;;;;;;;20.80;42.00;;;;;;1480465;40;19980;-65
2021/06/14 02:02:30;;;;;;;;;;;20.80;42.00;;;;;;1482901;40;20142;-66
2021/06/14 02:03:51;;;;;;;;;;;20.80;42.10;;;;;;1481562;40;19954;-65
2021/06/14 02:05:13;;;;;;;;;;;20.80;42.10;;;;;;1482454;40;19960;-66
2021/06/14 02:06:35;;;;;;;;;;;20.80;42.00;;;;;;1481664;40;20105;-65
2021/06/14 02:07:56;;;;;;;;;;;20.70;41.80;;;;;;1481990;40;20014;-65
2021/06/14 02:09:18;;;;;;;;;;;20.70;41.90;;;;;;1483040;40;19933;-65
2021/06/14 02:10:39;;;;;;;;;;;20.70;41.80;;;;;;1482182;40;19997;-66
2021/06/14 02:12:02;;;;;;;;;;;20.70;41.90;;;;;;1481942;40;20268;-65
2021/06/14 02:13:23;;;;;;;;;;;20.70;42.00;;;;;;1481616;40;19947;-65
2021/06/14 02:14:44;;;;;;;;;;;20.70;42.00;;;;;;1479284;40;20192;-65
2021/06/14 02:16:05;;;;;;;;;;;20.70;42.10;;;;;;1482068;40;19941;-65
2021/06/14 02:17:29;;;;;;;;;;;20.70;42.10;;;;;;1482720;40;19937;-65
2021/06/14 02:18:50;;;;;;;;;;;20.70;42.30;;;;;;1480876;40;19944;-65
2021/06/14 02:20:12;;;;;;;;;;;20.70;42.20;;;;;;1481401;40;20290;-65
2021/06/14 02:21:34;;;;;;;;;;;20.70;42.30;;;;;;1482991;40;20425;-65
2021/06/14 02:22:55;;;;;;;;;;;20.70;42.30;;;;;;1481583;40;19932;-65
2021/06/14 02:24:16;;;;;;;;;;;20.60;42.30;;;;;;1481329;40;19937;-65
2021/06/14 02:25:37;;;;;;;;;;;20.60;42.30;;;;;;1481761;40;20285;-66
2021/06/14 02:26:58;;;;;;;;;;;20.60;42.10;;;;;;1481984;40;20729;-65
2021/06/14 02:28:19;;;;;;;;;;;20.60;42.30;;;;;;1481626;40;20350;-65
2021/06/14 02:29:40;;;;;;;;;;;20.70;42.10;;;;;;1482150;40;19936;-65
2021/06/14 02:31:01;;;;;;;;;;;20.60;42.30;;;;;;1481579;40;19943;-65
2021/06/14 02:32:22;;;;;;;;;;;20.60;42.50;;;;;;1481878;40;20303;-65
2021/06/14 02:33:43;;;;;;;;;;;20.50;42.40;;;;;;1481765;40;19932;-65
2021/06/14 02:35:05;;;;;;;;;;;20.60;42.40;;;;;;1482476;40;19939;-65
2021/06/14 02:36:26;;;;;;;;;;;20.50;42.30;;;;;;1480152;40;20253;-65
2021/06/14 02:37:48;;;;;;;;;;;20.50;42.20;;;;;;1481095;40;20034;-65
2021/06/14 02:39:14;;;;;;;;;;;20.50;42.30;;;;;;1481421;40;20331;-65
2021/06/14 02:40:34;;;;;;;;;;;20.50;42.60;;;;;;1481090;40;20300;-65
2021/06/14 02:41:55;;;;;;;;;;;20.50;42.50;;;;;;1482641;40;20237;-65
2021/06/14 02:43:19;;;;;;;;;;;20.40;42.60;;;;;;1482066;40;20022;-66
2021/06/14 02:44:40;;;;;;;;;;;20.40;42.60;;;;;;1482092;40;19945;-65
2021/06/14 02:46:02;;;;;;;;;;;20.40;42.60;;;;;;1481482;40;19946;-65
2021/06/14 02:47:23;;;;;;;;;;;20.40;42.50;;;;;;1481914;40;19952;-65
2021/06/14 02:48:46;;;;;;;;;;;20.40;42.50;;;;;;1480635;40;20171;-65
2021/06/14 02:50:08;;;;;;;;;;;20.40;42.60;;;;;;1481472;40;20359;-66
2021/06/14 02:51:34;;;;;;;;;;;20.30;42.60;;;;;;1481223;40;20004;-66
2021/06/14 02:52:55;;;;;;;;;;;20.30;42.80;;;;;;1482049;40;19970;-65
2021/06/14 02:54:17;;;;;;;;;;;20.30;43.00;;;;;;1480948;40;20227;-65
2021/06/14 02:56:00;;;;;;;;;;;20.30;42.80;;;;;;1481695;40;19946;-65
2021/06/14 02:57:23;;;;;;;;;;;20.30;42.50;;;;;;1481335;40;19937;-65
2021/06/14 02:58:45;;;;;;;;;;;20.20;42.50;;;;;;1481292;40;20274;-65
2021/06/14 03:00:07;;;;;;;;;;;20.20;42.70;;;;;;1481860;40;20189;-65
2021/06/14 03:01:28;;;;;;;;;;;20.20;43.00;;;;;;1480566;40;19944;-65
2021/06/14 03:02:49;;;;;;;;;;;20.10;43.10;;;;;;1482087;40;19937;-65
2021/06/14 03:04:10;;;;;;;;;;;20.10;42.70;;;;;;1481424;40;20041;-65
2021/06/14 03:05:31;;;;;;;;;;;20.10;42.70;;;;;;1479992;40;19984;-65
2021/06/14 03:06:52;;;;;;;;;;;20.10;42.50;;;;;;1481424;40;19952;-65
2021/06/14 03:08:14;;;;;;;;;;;20.10;42.60;;;;;;1481598;40;19948;-66
2021/06/14 03:09:36;;;;;;;;;;;20.00;42.80;;;;;;1482011;40;19942;-65
2021/06/14 03:10:57;;;;;;;;;;;20.10;42.40;;;;;;1480809;40;20262;-65
2021/06/14 03:12:18;;;;;;;;;;;20.00;42.50;;;;;;1481569;40;20030;-65
2021/06/14 03:13:46;;;;;;;;;;;20.00;42.80;;;;;;1481751;40;19940;-66
2021/06/14 03:15:07;;;;;;;;;;;20.00;42.80;;;;;;1481812;40;19937;-65
2021/06/14 03:16:28;;;;;;;;;;;19.90;42.90;;;;;;1481750;40;19976;-65
2021/06/14 03:17:49;;;;;;;;;;;19.90;42.80;;;;;;1481532;40;20538;-66
2021/06/14 03:19:10;;;;;;;;;;;19.90;42.70;;;;;;1481426;40;19936;-65
2021/06/14 03:20:32;;;;;;;;;;;19.90;43.10;;;;;;1481401;40;20041;-65
2021/06/14 03:21:52;;;;;;;;;;;19.90;42.60;;;;;;1481958;40;19951;-65
2021/06/14 03:23:14;;;;;;;;;;;19.90;42.90;;;;;;1481607;40;20089;-65
2021/06/14 03:24:36;;;;;;;;;;;19.80;42.80;;;;;;1481292;40;19944;-65
2021/06/14 03:25:57;;;;;;;;;;;19.80;43.00;;;;;;1480980;40;20146;-65
2021/06/14 03:27:19;;;;;;;;;;;19.80;43.00;;;;;;1481072;40;20792;-65
2021/06/14 03:28:42;;;;;;;;;;;19.80;43.00;;;;;;1482021;40;19967;-65
2021/06/14 03:30:03;;;;;;;;;;;19.80;43.00;;;;;;1481501;40;20212;-65
2021/06/14 03:31:26;;;;;;;;;;;19.80;43.00;;;;;;1481693;40;19955;-65
2021/06/14 03:32:47;;;;;;;;;;;19.80;43.20;;;;;;1480695;40;19940;-65
2021/06/14 03:34:10;;;;;;;;;;;19.70;43.40;;;;;;1481043;40;19940;-65
2021/06/14 03:35:32;;;;;;;;;;;19.70;43.40;;;;;;1480925;40;20025;-65
2021/06/14 03:36:53;;;;;;;;;;;19.70;43.50;;;;;;1481869;40;19947;-65
2021/06/14 03:38:15;;;;;;;;;;;19.70;43.40;;;;;;1481382;40;19940;-65
2021/06/14 03:39:35;;;;;;;;;;;19.70;43.30;;;;;;1481280;40;19943;-65
2021/06/14 03:40:56;;;;;;;;;;;19.70;43.50;;;;;;1481693;40;20259;-65
2021/06/14 03:42:18;;;;;;;;;;;19.70;43.50;;;;;;1481252;40;19940;-65
2021/06/14 03:43:39;;;;;;;;;;;19.70;43.40;;;;;;1481964;40;19972;-65
2021/06/14 03:45:00;;;;;;;;;;;19.70;43.40;;;;;;1481405;40;20303;-65
2021/06/14 03:46:21;;;;;;;;;;;19.70;43.50;;;;;;1481520;40;20031;-65
2021/06/14 03:47:42;;;;;;;;;;;19.60;43.40;;;;;;1481132;40;19950;-66
2021/06/14 03:49:03;;;;;;;;;;;19.70;43.60;;;;;;1480915;40;19947;-65
2021/06/14 03:50:24;;;;;;;;;;;19.70;43.60;;;;;;1477586;40;19940;-65
2021/06/14 03:51:45;;;;;;;;;;;19.70;43.60;;;;;;1481004;40;19940;-65
2021/06/14 03:53:07;;;;;;;;;;;19.70;43.70;;;;;;1482009;40;20044;-65
2021/06/14 03:54:27;;;;;;;;;;;19.70;43.60;;;;;;1480707;40;19944;-65
2021/06/14 03:55:48;;;;;;;;;;;19.60;43.70;;;;;;1481509;40;19980;-65
2021/06/14 03:57:09;;;;;;;;;;;19.60;43.80;;;;;;1481745;40;20839;-65
2021/06/14 03:58:30;;;;;;;;;;;19.60;43.70;;;;;;1481280;40;19960;-66
2021/06/14 03:59:51;;;;;;;;;;;19.60;43.50;;;;;;1480970;40;19943;-65
2021/06/14 04:01:12;;;;;;;;;;;19.60;43.70;;;;;;1480772;40;19971;-65
2021/06/14 04:02:32;;;;;;;;;;;19.60;43.70;;;;;;1478490;40;19948;-66
2021/06/14 04:05:20;;;;;;;;;;;19.60;43.50;;;;;;1481452;40;19940;-65
2021/06/14 04:06:41;;;;;;;;;;;19.60;43.60;;;;;;1477003;40;19944;-65
2021/06/14 04:08:02;;;;;;;;;;;19.60;43.60;;;;;;1479536;40;19948;-66
2021/06/14 04:09:23;;;;;;;;;;;19.60;43.70;;;;;;1481166;40;19951;-65
2021/06/14 04:10:44;;;;;;;;;;;19.60;43.60;;;;;;1480890;40;19944;-65
2021/06/14 04:12:05;;;;;;;;;;;19.60;43.70;;;;;;1480977;40;19940;-65
2021/06/14 04:13:26;;;;;;;;;;;19.60;43.80;;;;;;1481589;40;19936;-65
2021/06/14 04:14:46;;;;;;;;;;;19.60;43.60;;;;;;1480555;40;19958;-65
2021/06/14 04:16:07;;;;;;;;;;;19.60;43.60;;;;;;1480218;40;19954;-65
2021/06/14 04:17:28;;;;;;;;;;;19.60;43.60;;;;;;1481230;40;19956;-65
2021/06/14 04:18:49;;;;;;;;;;;19.60;43.70;;;;;;1480718;40;20174;-65
2021/06/14 04:20:11;;;;;;;;;;;19.60;43.70;;;;;;1480296;40;20241;-65
2021/06/14 04:21:32;;;;;;;;;;;19.60;43.70;;;;;;1481266;40;20037;-65
2021/06/14 04:22:53;;;;;;;;;;;19.60;43.90;;;;;;1481549;40;19947;-65
2021/06/14 04:24:14;;;;;;;;;;;19.60;43.90;;;;;;1480538;40;19948;-66
2021/06/14 04:25:35;;;;;;;;;;;19.60;43.90;;;;;;1480685;40;19941;-65
2021/06/14 04:26:56;;;;;;;;;;;19.60;44.00;;;;;;1480874;40;20039;-66
2021/06/14 04:28:16;;;;;;;;;;;19.60;44.10;;;;;;1481323;40;19947;-65
2021/06/14 04:29:38;;;;;;;;;;;19.60;44.10;;;;;;1481749;40;19940;-65
2021/06/14 04:30:59;;;;;;;;;;;19.60;44.20;;;;;;1480819;40;19960;-65
2021/06/14 04:32:19;;;;;;;;;;;19.60;44.20;;;;;;1481614;40;19945;-66
2021/06/14 04:33:40;;;;;;;;;;;19.60;44.20;;;;;;1480762;40;19936;-65
2021/06/14 04:35:01;;;;;;;;;;;19.60;44.20;;;;;;1481063;40;19936;-65
2021/06/14 04:36:22;;;;;;;;;;;19.50;44.10;;;;;;1481600;40;19987;-65
2021/06/14 04:37:43;;;;;;;;;;;19.60;44.20;;;;;;1480957;40;19952;-66
2021/06/14 04:39:04;;;;;;;;;;;19.60;44.30;;;;;;1477916;40;19937;-66
2021/06/14 04:40:25;;;;;;;;;;;19.60;44.50;;;;;;1480693;40;19937;-66
2021/06/14 04:41:46;;;;;;;;;;;19.60;44.50;;;;;;1484746;40;19967;-66
2021/06/14 04:43:07;;;;;;;;;;;19.60;44.60;;;;;;1479683;40;19945;-65
2021/06/14 04:44:28;;;;;;;;;;;19.60;44.50;;;;;;1481488;40;20623;-66
2021/06/14 04:45:48;;;;;;;;;;;19.60;44.40;;;;;;1480237;40;19977;-65
2021/06/14 04:47:09;;;;;;;;;;;19.60;44.40;;;;;;1481240;40;20272;-65
2021/06/14 04:48:30;;;;;;;;;;;19.60;44.50;;;;;;1482175;40;19937;-66
2021/06/14 04:49:51;;;;;;;;;;;19.60;44.40;;;;;;1481977;40;20276;-66
2021/06/14 04:51:11;;;;;;;;;;;19.60;44.30;;;;;;1482481;40;20164;-66
2021/06/14 04:52:32;;;;;;;;;;;19.60;44.40;;;;;;1480639;40;20257;-66
2021/06/14 04:53:53;;;;;;;;;;;19.60;44.40;;;;;;1481316;40;19984;-66
2021/06/14 04:55:14;;;;;;;;;;;19.50;44.30;;;;;;1480799;40;19959;-65
2021/06/14 04:56:35;;;;;;;;;;;19.70;44.60;;;;;;1481745;40;20010;-66
2021/06/14 04:57:55;;;;;;;;;;;19.70;44.60;;;;;;1481325;40;19952;-66
2021/06/14 04:59:16;;;;;;;;;;;19.60;44.60;;;;;;1482300;40;20221;-65
2021/06/14 05:00:37;;;;;;;;;;;19.70;44.70;;;;;;1480439;40;20167;-66
2021/06/14 05:01:58;;;;;;;;;;;19.70;44.70;;;;;;1483670;40;19936;-66
2021/06/14 05:03:19;;;;;;;;;;;19.70;44.60;;;;;;1483053;40;19952;-65
2021/06/14 05:04:39;;;;;;;;;;;19.70;44.60;;;;;;1481570;40;19933;-65
2021/06/14 05:06:00;;;;;;;;;;;19.70;44.50;;;;;;1482307;40;20276;-65
2021/06/14 05:07:21;;;;;;;;;;;19.70;44.50;;;;;;1483135;40;20029;-66
2021/06/14 05:08:42;;;;;;;;;;;19.70;44.60;;;;;;1481293;40;19976;-65
2021/06/14 05:10:03;;;;;;;;;;;19.70;44.60;;;;;;1483528;40;20001;-65
2021/06/14 05:11:24;;;;;;;;;;;19.70;44.70;;;;;;1483331;40;20315;-66
2021/06/14 05:12:44;;;;;;;;;;;19.80;44.90;;;;;;1481931;40;20062;-65
2021/06/14 05:14:05;;;;;;;;;;;19.80;45.30;;;;;;1481928;40;19943;-65
2021/06/14 05:15:26;;;;;;;;;;;19.80;44.80;;;;;;1480507;40;19944;-65
2021/06/14 05:16:47;;;;;;;;;;;19.70;44.70;;;;;;1480518;40;19936;-65
2021/06/14 05:18:08;;;;;;;;;;;19.80;44.80;;;;;;1480811;40;19952;-65
2021/06/14 05:19:29;;;;;;;;;;;19.70;44.80;;;;;;1480983;40;20770;-66
2021/06/14 05:20:49;;;;;;;;;;;19.80;44.80;;;;;;1480716;40;19976;-65
2021/06/14 05:22:10;;;;;;;;;;;19.70;44.70;;;;;;1480697;40;19951;-65
2021/06/14 05:23:31;;;;;;;;;;;19.80;44.90;;;;;;1476182;40;20377;-65
2021/06/14 05:24:52;;;;;;;;;;;19.80;44.80;;;;;;1480023;40;20303;-65
2021/06/14 05:26:12;;;;;;;;;;;19.80;44.70;;;;;;1480653;40;20019;-66
2021/06/14 05:27:33;;;;;;;;;;;19.80;44.90;;;;;;1481236;40;19944;-66
2021/06/14 05:28:54;;;;;;;;;;;19.80;44.80;;;;;;1480990;40;19940;-66
2021/06/14 05:30:15;;;;;;;;;;;19.90;44.90;;;;;;1480947;40;20182;-65
2021/06/14 05:31:37;;;;;;;;;;;19.80;45.00;;;;;;1480392;40;19944;-65
2021/06/14 05:32:58;;;;;;;;;;;19.90;45.00;;;;;;1480700;40;19936;-65
2021/06/14 05:34:19;;;;;;;;;;;19.90;45.10;;;;;;1481341;40;20237;-65
2021/06/14 05:35:40;;;;;;;;;;;19.90;45.10;;;;;;1480265;40;19942;-65
2021/06/14 05:37:01;;;;;;;;;;;19.90;45.10;;;;;;1480224;40;19944;-65
2021/06/14 05:38:21;;;;;;;;;;;19.90;45.10;;;;;;1480376;40;19948;-65
2021/06/14 05:39:42;;;;;;;;;;;19.90;45.20;;;;;;1481524;40;19936;-66
2021/06/14 05:41:03;;;;;;;;;;;19.90;45.20;;;;;;1480834;40;19932;-65
2021/06/14 05:42:24;;;;;;;;;;;20.00;45.30;;;;;;1480370;40;20008;-65
2021/06/14 05:43:45;;;;;;;;;;;20.00;45.30;;;;;;1476554;40;20156;-65
2021/06/14 05:45:06;;;;;;;;;;;20.00;45.30;;;;;;1479901;40;19951;-65
2021/06/14 05:46:27;;;;;;;;;;;20.00;45.40;;;;;;1480218;40;19948;-65
2021/06/14 05:47:48;;;;;;;;;;;20.00;45.30;;;;;;1480969;40;19947;-66
2021/06/14 05:49:08;;;;;;;;;;;20.10;45.40;;;;;;1480361;40;19944;-65
2021/06/14 05:50:29;;;;;;;;;;;20.10;45.40;;;;;;1480871;40;20572;-65
2021/06/14 05:51:50;;;;;;;;;;;20.10;45.40;;;;;;1480868;40;19952;-66
2021/06/14 05:53:12;;;;;;;;;;;20.10;45.50;;;;;;1481175;40;19936;-65
2021/06/14 05:54:32;;;;;;;;;;;20.10;45.50;;;;;;1480003;40;19937;-66
2021/06/14 05:55:53;;;;;;;;;;;20.20;45.50;;;;;;1480699;40;20449;-65
2021/06/14 05:57:14;;;;;;;;;;;20.20;45.40;;;;;;1481102;40;19944;-66
2021/06/14 05:58:35;;;;;;;;;;;20.20;45.40;;;;;;1480586;40;19937;-66
2021/06/14 05:59:56;;;;;;;;;;;20.30;45.40;;;;;;1480888;40;19940;-65
2021/06/14 06:01:17;;;;;;;;;;;20.20;45.30;;;;;;1480324;40;19943;-65
2021/06/14 06:02:38;;;;;;;;;;;20.30;45.40;;;;;;1480430;40;19936;-65
2021/06/14 06:03:59;;;;;;;;;;;20.30;45.40;;;;;;1480346;40;19944;-65
2021/06/14 06:05:20;;;;;;;;;;;20.30;45.40;;;;;;1481727;40;20204;-65
2021/06/14 06:06:40;;;;;;;;;;;20.30;45.40;;;;;;1481708;40;20423;-65
2021/06/14 06:08:02;;;;;;;;;;;20.30;45.30;;;;;;1481567;40;19936;-65
2021/06/14 06:09:23;;;;;;;;;;;20.30;45.30;;;;;;1479491;40;20221;-65
2021/06/14 06:10:43;;;;;;;;;;;20.30;45.30;;;;;;1481695;40;19943;-66
2021/06/14 06:12:04;;;;;;;;;;;20.30;45.30;;;;;;1481637;40;19944;-65
2021/06/14 06:13:25;;;;;;;;;;;20.40;45.40;;;;;;1482432;40;19940;-65
2021/06/14 06:14:46;;;;;;;;;;;20.40;45.40;;;;;;1481942;40;21399;-65
2021/06/14 06:16:07;;;;;;;;;;;20.40;45.40;;;;;;1482286;40;20048;-65
2021/06/14 06:17:28;;;;;;;;;;;20.50;45.50;;;;;;1482245;40;20462;-65
2021/06/14 06:18:49;;;;;;;;;;;20.50;45.50;;;;;;1481560;40;19940;-65
2021/06/14 06:20:12;;;;;;;;;;;20.50;45.40;;;;;;1482529;40;20202;-65
2021/06/14 06:21:32;;;;;;;;;;;20.50;45.50;;;;;;1482405;40;19944;-65
2021/06/14 06:22:53;;;;;;;;;;;20.50;45.50;;;;;;1482334;40;19945;-65
2021/06/14 06:24:14;;;;;;;;;;;20.60;45.60;;;;;;1483541;40;19963;-65
2021/06/14 06:25:35;;;;;;;;;;;20.60;45.30;;;;;;1482896;40;19944;-66
2021/06/14 06:26:56;;;;;;;;;;;20.60;45.40;;;;;;1482671;40;20264;-66
2021/06/14 06:28:17;;;;;;;;;;;20.70;45.50;;;;;;1482813;40;19973;-65
2021/06/14 06:29:38;;;;;;;;;;;20.70;45.70;;;;;;1482087;40;19944;-66
2021/06/14 06:30:59;;;;;;;;;;;20.70;45.60;;;;;;1482127;40;19967;-66
2021/06/14 06:32:19;;;;;;;;;;;20.70;45.50;;;;;;1482841;40;19951;-65
2021/06/14 06:33:41;;;;;;;;;;;20.70;45.60;;;;;;1484066;40;19940;-65
2021/06/14 06:35:03;;;;;;;;;;;20.70;45.50;;;;;;1483423;40;19988;-65
2021/06/14 06:36:24;;;;;;;;;;;20.80;45.60;;;;;;1482016;40;20219;-66
2021/06/14 06:37:45;;;;;;;;;;;20.80;45.50;;;;;;1481568;40;19948;-65
2021/06/14 06:39:06;;;;;;;;;;;20.80;45.80;;;;;;1482509;40;20077;-66
2021/06/14 06:40:27;;;;;;;;;;;20.90;45.60;;;;;;1482169;40;19936;-65
2021/06/14 06:41:48;;;;;;;;;;;20.90;45.60;;;;;;1482294;40;19940;-65
2021/06/14 06:43:09;;;;;;;;;;;20.90;45.60;;;;;;1482951;40;20002;-65
2021/06/14 06:44:30;;;;;;;;;;;21.00;45.60;;;;;;1481867;40;20540;-65
2021/06/14 06:45:51;;;;;;;;;;;21.00;45.80;;;;;;1482268;40;19947;-66
2021/06/14 06:47:12;;;;;;;;;;;21.00;45.60;;;;;;1483099;40;19940;-65
2021/06/14 06:48:33;;;;;;;;;;;21.00;45.70;;;;;;1482973;40;20266;-66
2021/06/14 06:49:54;;;;;;;;;;;21.10;45.70;;;;;;1482554;40;19943;-66
2021/06/14 06:51:15;;;;;;;;;;;21.10;45.60;;;;;;1481319;40;20149;-65
2021/06/14 06:52:36;;;;;;;;;;;21.20;45.60;;;;;;1481639;40;19991;-65
2021/06/14 06:54:12;;;;;;;;;;;21.20;45.60;;;;;;1482041;40;19936;-66
2021/06/14 06:55:33;;;;;;;;;;;21.20;45.50;;;;;;1482971;40;20037;-65
2021/06/14 06:56:54;;;;;;;;;;;21.20;45.40;;;;;;1481023;40;19936;-65
2021/06/14 06:58:15;;;;;;;;;;;21.30;45.50;;;;;;1481146;40;19948;-65
2021/06/14 06:59:36;;;;;;;;;;;21.30;45.50;;;;;;1481851;40;19940;-65
2021/06/14 07:00:58;;;;;;;;;;;21.30;45.50;;;;;;1482146;40;19963;-65
2021/06/14 07:02:19;;;;;;;;;;;21.40;45.50;;;;;;1482913;40;19937;-65
2021/06/14 07:03:41;;;;;;;;;;;21.40;45.50;;;;;;1478296;40;19941;-66
2021/06/14 07:05:02;;;;;;;;;;;21.40;45.50;;;;;;1481235;40;19951;-66
2021/06/14 07:06:23;;;;;;;;;;;21.50;45.50;;;;;;1481460;40;19976;-65
2021/06/14 07:07:44;;;;;;;;;;;21.50;45.50;;;;;;1482333;40;19945;-65
2021/06/14 07:09:05;;;;;;;;;;;21.50;45.50;;;;;;1482206;40;20119;-65
2021/06/14 07:10:26;;;;;;;;;;;21.60;45.60;;;;;;1483588;40;20071;-65
2021/06/14 07:11:46;;;;;;;;;;;21.60;45.50;;;;;;1482674;40;19945;-66
2021/06/14 07:13:07;;;;;;;;;;;21.60;45.60;;;;;;1483345;40;19952;-65
2021/06/14 07:14:28;;;;;;;;;;;21.70;45.50;;;;;;1482445;40;20260;-65
2021/06/14 07:15:49;;;;;;;;;;;21.70;45.50;;;;;;1483123;40;20317;-65
2021/06/14 07:17:10;;;;;;;;;;;21.70;45.50;;;;;;1482780;40;19940;-65
2021/06/14 07:18:31;;;;;;;;;;;21.80;45.60;;;;;;1483457;40;19979;-65
2021/06/14 07:19:52;;;;;;;;;;;21.80;45.60;;;;;;1483033;40;19948;-65
2021/06/14 07:21:13;;;;;;;;;;;21.80;45.60;;;;;;1481598;40;19952;-65
2021/06/14 07:22:34;;;;;;;;;;;21.90;45.70;;;;;;1482300;40;19944;-65
2021/06/14 07:23:54;;;;;;;;;;;21.90;45.60;;;;;;1481738;40;19951;-66
2021/06/14 07:25:16;;;;;;;;;;;22.00;46.30;;;;;;1481923;40;20125;-65
2021/06/14 07:26:36;;;;;;;;;;;22.00;45.70;;;;;;1481362;40;19960;-65
2021/06/14 07:27:57;;;;;;;;;;;22.00;45.70;;;;;;1481319;40;19940;-65
2021/06/14 07:29:18;;;;;;;;;;;22.10;45.60;;;;;;1480890;40;19993;-65
2021/06/14 07:30:39;;;;;;;;;;;22.10;45.60;;;;;;1480529;40;19951;-65
2021/06/14 07:32:00;;;;;;;;;;;22.20;45.50;;;;;;1480828;40;19952;-65
2021/06/14 07:33:21;;;;;;;;;;;22.20;45.50;;;;;;1480960;40;19963;-65
2021/06/14 07:34:42;;;;;;;;;;;22.20;45.50;;;;;;1482125;40;19948;-65
2021/06/14 07:36:03;;;;;;;;;;;22.30;45.50;;;;;;1482231;40;19936;-65
2021/06/14 07:37:24;;;;;;;;;;;22.30;45.50;;;;;;1481012;40;19943;-65
2021/06/14 07:38:46;;;;;;;;;;;22.30;45.50;;;;;;1480896;40;19936;-65
2021/06/14 07:40:07;;;;;;;;;;;22.40;45.50;;;;;;1481072;40;19936;-65
2021/06/14 07:41:28;;;;;;;;;;;22.40;45.70;;;;;;1481424;40;19984;-66
2021/06/14 07:42:49;;;;;;;;;;;22.50;45.60;;;;;;1480894;40;19947;-65
2021/06/14 07:44:10;;;;;;;;;;;22.50;45.50;;;;;;1479634;40;19947;-65
2021/06/14 07:45:31;;;;;;;;;;;22.60;45.40;;;;;;1480767;40;19940;-65
2021/06/14 07:46:53;;;;;;;;;;;22.60;45.30;;;;;;1481411;40;19940;-65
2021/06/14 07:48:14;;;;;;;;;;;22.60;45.30;;;;;;1481047;40;19940;-66
2021/06/14 07:49:35;;;;;;;;;;;22.60;45.30;;;;;;1481807;40;20243;-65
2021/06/14 07:50:56;;;;;;;;;;;22.70;45.40;;;;;;1481842;40;20165;-66
2021/06/14 07:52:17;;;;;;;;;;;22.70;45.40;;;;;;1480944;40;19940;-65
2021/06/14 07:53:38;;;;;;;;;;;22.70;45.40;;;;;;1481205;40;19940;-65
2021/06/14 07:54:59;;;;;;;;;;;22.80;45.50;;;;;;1481280;40;19951;-65